createdAt,value
2022-12-08T00:01:35.616Z,8.30
2022-12-08T00:04:05.348Z,9.00
2022-12-08T00:06:54.729Z,12.50
2022-12-08T00:09:25.668Z,8.67
2022-12-08T00:11:56.532Z,10.33
2022-12-08T00:14:26.472Z,10.80
2022-12-08T00:16:55.392Z,7.50
2022-12-08T00:19:24.751Z,11.13
2022-12-08T00:21:54.934Z,18.17
2022-12-08T00:24:23.716Z,9.83
2022-12-08T00:26:51.977Z,14.20
2022-12-08T00:29:20.524Z,9.97
2022-12-08T00:31:49.037Z,11.20
2022-12-08T00:34:17.574Z,10.87
2022-12-08T00:36:45.780Z,12.10
2022-12-08T00:39:16.574Z,11.73
2022-12-08T00:42:02.542Z,11.47
2022-12-08T00:44:30.831Z,12.33
2022-12-08T00:46:58.897Z,12.03
2022-12-08T00:49:26.992Z,12.47
2022-12-08T00:51:55.633Z,10.57
2022-12-08T00:54:25.045Z,13.20
2022-12-08T00:56:53.297Z,11.20
2022-12-08T00:59:21.474Z,11.43
2022-12-08T01:01:49.731Z,10.00
2022-12-08T01:04:19.608Z,10.50
2022-12-08T01:06:48.812Z,12.20
2022-12-08T01:09:21.005Z,14.43
2022-12-08T01:11:50.564Z,10.87
2022-12-08T01:14:18.822Z,9.50
2022-12-08T01:16:47.135Z,9.17
2022-12-08T01:19:17.299Z,10.20
2022-12-08T01:21:47.018Z,10.63
2022-12-08T01:24:17.295Z,11.73
2022-12-08T01:26:46.168Z,10.53
2022-12-08T01:29:15.700Z,9.40
2022-12-08T01:31:44.221Z,9.20
2022-12-08T01:34:13.202Z,10.70
2022-12-08T01:36:42.234Z,8.67
2022-12-08T01:39:18.947Z,8.20
2022-12-08T01:41:48.604Z,7.67
2022-12-08T01:44:55.161Z,10.80
2022-12-08T01:47:25.833Z,9.30
2022-12-08T01:49:54.222Z,10.80
2022-12-08T01:52:27.660Z,9.20
2022-12-08T01:54:59.466Z,8.83
2022-12-08T01:57:31.662Z,8.33
2022-12-08T02:00:06.749Z,9.97
2022-12-08T02:02:43.040Z,8.93
2022-12-08T02:05:12.953Z,8.47
2022-12-08T02:07:41.518Z,11.10
2022-12-08T02:10:11.208Z,8.13
2022-12-08T02:12:39.239Z,9.00
2022-12-08T02:15:09.884Z,10.13
2022-12-08T02:17:51.181Z,7.57
2022-12-08T02:20:38.971Z,8.97
2022-12-08T02:23:16.215Z,10.43
2022-12-08T02:26:03.465Z,7.77
2022-12-08T02:28:55.233Z,15.40
2022-12-08T02:31:38.042Z,12.53
2022-12-08T02:34:19.994Z,7.57
2022-12-08T02:36:55.309Z,8.83
2022-12-08T02:39:30.142Z,9.80
2022-12-08T02:42:08.074Z,10.63
2022-12-08T02:44:40.532Z,9.07
2022-12-08T02:47:12.879Z,9.13
2022-12-08T02:49:42.632Z,11.67
2022-12-08T02:52:42.031Z,9.87
2022-12-08T02:55:16.639Z,9.37
2022-12-08T02:57:57.962Z,8.23
2022-12-08T03:00:28.348Z,11.30
2022-12-08T03:03:09.375Z,8.10
2022-12-08T03:05:56.867Z,8.37
2022-12-08T03:08:33.636Z,8.67
2022-12-08T03:11:06.037Z,6.63
2022-12-08T03:13:39.935Z,7.90
2022-12-08T03:16:10.657Z,8.47
2022-12-08T03:18:44.467Z,6.37
2022-12-08T03:21:16.215Z,7.37
2022-12-08T03:23:47.402Z,7.53
2022-12-08T03:26:20.749Z,7.37
2022-12-08T03:28:48.921Z,7.07
2022-12-08T03:31:19.693Z,6.70
2022-12-08T03:33:52.712Z,4.90
2022-12-08T03:36:22.279Z,5.17
2022-12-08T03:38:53.713Z,5.57
2022-12-08T03:41:22.391Z,7.27
2022-12-08T03:43:51.974Z,6.30
2022-12-08T03:48:51.827Z,8.70
2022-12-08T03:51:22.114Z,7.63
2022-12-08T03:53:50.207Z,6.90
2022-12-08T03:56:23.480Z,7.13
2022-12-08T03:58:51.670Z,6.30
2022-12-08T04:01:20.034Z,6.47
2022-12-08T04:03:48.499Z,10.70
2022-12-08T04:06:17.420Z,5.47
2022-12-08T04:08:47.218Z,6.33
2022-12-08T04:11:15.566Z,7.50
2022-12-08T04:13:44.137Z,6.13
2022-12-08T04:16:17.030Z,8.60
2022-12-08T04:18:45.650Z,6.17
2022-12-08T04:21:13.958Z,6.40
2022-12-08T04:23:42.306Z,9.57
2022-12-08T04:26:12.351Z,8.50
2022-12-08T04:28:40.424Z,9.10
2022-12-08T04:31:08.695Z,7.43
2022-12-08T04:33:36.907Z,8.50
2022-12-08T04:36:06.334Z,6.17
2022-12-08T04:38:34.728Z,6.30
2022-12-08T04:41:03.025Z,7.87
2022-12-08T04:43:32.390Z,6.37
2022-12-08T04:46:00.463Z,6.47
2022-12-08T04:48:28.471Z,7.50
2022-12-08T04:50:56.650Z,7.47
2022-12-08T04:53:26.647Z,6.80
2022-12-08T04:55:55.574Z,7.30
2022-12-08T04:58:23.840Z,8.83
2022-12-08T05:00:53.369Z,7.90
2022-12-08T05:03:26.867Z,8.70
2022-12-08T05:05:56.885Z,9.10
2022-12-08T05:08:25.018Z,8.27
2022-12-08T05:10:53.159Z,8.30
2022-12-08T05:13:21.258Z,8.53
2022-12-08T05:15:49.525Z,7.97
2022-12-08T05:18:18.953Z,7.73
2022-12-08T05:20:47.001Z,7.43
2022-12-08T05:23:15.063Z,8.00
2022-12-08T05:25:43.066Z,9.70
2022-12-08T05:28:39.605Z,7.30
2022-12-08T05:30:59.174Z,8.50
2022-12-08T05:33:28.609Z,7.87
2022-12-08T05:35:56.660Z,8.33
2022-12-08T05:38:24.762Z,8.83
2022-12-08T05:40:52.999Z,8.90
2022-12-08T05:43:21.055Z,8.87
2022-12-08T05:45:49.231Z,8.17
2022-12-08T05:48:17.726Z,9.53
2022-12-08T05:50:49.551Z,9.00
2022-12-08T05:53:18.032Z,9.60
2022-12-08T05:55:46.509Z,9.97
2022-12-08T05:58:16.442Z,8.87
2022-12-08T06:00:45.037Z,8.90
2022-12-08T06:03:13.885Z,9.23
2022-12-08T06:05:42.457Z,8.63
2022-12-08T06:08:12.929Z,9.40
2022-12-08T06:10:41.952Z,8.53
2022-12-08T06:13:10.080Z,8.97
2022-12-08T06:15:38.817Z,8.20
2022-12-08T06:18:07.723Z,7.90
2022-12-08T06:20:35.873Z,8.20
2022-12-08T06:23:04.228Z,6.50
2022-12-08T06:25:33.657Z,7.40
2022-12-08T06:28:01.744Z,7.03
2022-12-08T06:30:29.803Z,6.50
2022-12-08T06:32:57.900Z,8.03
2022-12-08T06:35:25.885Z,8.33
2022-12-08T06:37:53.959Z,8.20
2022-12-08T06:40:21.955Z,6.73
2022-12-08T06:42:51.329Z,6.30
2022-12-08T06:45:19.793Z,8.90
2022-12-08T06:47:47.771Z,7.03
2022-12-08T06:50:16.102Z,6.43
2022-12-08T06:52:55.949Z,6.73
2022-12-08T06:58:21.203Z,7.77
2022-12-08T07:00:49.339Z,7.10
2022-12-08T07:03:17.443Z,6.50
2022-12-08T07:05:45.447Z,7.03
2022-12-08T07:08:13.619Z,7.20
2022-12-08T07:10:41.765Z,8.97
2022-12-08T07:13:09.840Z,7.40
2022-12-08T07:15:39.261Z,7.13
2022-12-08T07:18:07.397Z,7.70
2022-12-08T07:20:35.497Z,9.87
2022-12-08T07:23:03.501Z,8.13
2022-12-08T07:25:31.535Z,7.40
2022-12-08T07:27:59.529Z,8.20
2022-12-08T07:30:27.708Z,7.60
2022-12-08T07:32:57.137Z,7.90
2022-12-08T07:35:25.173Z,7.40
2022-12-08T07:37:53.217Z,7.50
2022-12-08T07:40:23.375Z,7.10
2022-12-08T07:42:51.447Z,7.37
2022-12-08T07:45:19.724Z,6.90
2022-12-08T07:47:47.820Z,7.00
2022-12-08T07:50:17.434Z,7.73
2022-12-08T07:52:45.493Z,7.77
2022-12-08T07:55:13.500Z,7.50
2022-12-08T07:57:41.527Z,8.83
2022-12-08T08:00:11.697Z,7.13
2022-12-08T08:02:40.592Z,6.50
2022-12-08T08:05:09.830Z,7.90
2022-12-08T08:07:39.606Z,6.30
2022-12-08T08:10:09.131Z,7.13
2022-12-08T08:12:38.003Z,6.20
2022-12-08T08:15:08.416Z,5.80
2022-12-08T08:17:37.133Z,5.63
2022-12-08T08:20:07.916Z,5.20
2022-12-08T08:22:37.296Z,6.27
2022-12-08T08:25:07.310Z,8.83
2022-12-08T08:27:35.356Z,5.33
2022-12-08T08:30:03.895Z,5.30
2022-12-08T08:32:34.527Z,5.40
2022-12-08T08:35:02.854Z,5.03
2022-12-08T08:37:30.987Z,6.20
2022-12-08T08:39:59.024Z,5.30
2022-12-08T08:42:28.893Z,7.27
2022-12-08T08:44:57.258Z,5.53
2022-12-08T08:47:25.670Z,5.63
2022-12-08T08:49:53.771Z,5.20
2022-12-08T08:52:21.912Z,6.37
2022-12-08T08:54:49.969Z,5.70
2022-12-08T08:57:25.279Z,6.37
2022-12-08T08:59:56.453Z,6.30
2022-12-08T09:02:25.347Z,5.53
2022-12-08T09:04:55.298Z,6.23
2022-12-08T09:07:23.518Z,6.17
2022-12-08T09:09:54.706Z,5.50
2022-12-08T09:12:26.417Z,5.77
2022-12-08T09:14:55.803Z,5.40
2022-12-08T09:17:24.252Z,6.40
2022-12-08T09:19:52.252Z,6.37
2022-12-08T09:22:21.887Z,6.20
2022-12-08T09:24:49.947Z,6.17
2022-12-08T09:27:17.996Z,6.83
2022-12-08T09:29:46.048Z,6.47
2022-12-08T09:32:15.636Z,5.47
2022-12-08T09:34:46.461Z,5.70
2022-12-08T09:37:18.953Z,6.07
2022-12-08T09:39:48.013Z,6.37
2022-12-08T09:42:26.720Z,4.90
2022-12-08T09:45:03.455Z,7.17
2022-12-08T09:47:37.797Z,5.43
2022-12-08T09:50:12.332Z,6.13
2022-12-08T09:52:46.050Z,5.60
2022-12-08T09:55:23.491Z,6.87
2022-12-08T09:57:58.907Z,6.30
2022-12-08T10:00:27.814Z,5.10
2022-12-08T10:02:59.935Z,6.37
2022-12-08T10:05:29.941Z,6.73
2022-12-08T10:08:07.144Z,6.37
2022-12-08T10:10:42.944Z,5.70
2022-12-08T10:13:22.532Z,6.63
2022-12-08T10:15:59.878Z,5.70
2022-12-08T10:18:33.036Z,6.23
2022-12-08T10:21:13.242Z,6.20
2022-12-08T10:23:43.327Z,9.73
2022-12-08T10:26:15.463Z,8.20
2022-12-08T10:28:45.416Z,8.37
2022-12-08T10:31:17.967Z,6.00
2022-12-08T10:33:49.277Z,10.27
2022-12-08T10:36:17.288Z,7.53
2022-12-08T10:38:45.366Z,8.30
2022-12-08T10:41:18.020Z,7.97
2022-12-08T10:43:49.195Z,8.80
2022-12-08T10:46:19.894Z,10.10
2022-12-08T10:48:54.414Z,6.67
2022-12-08T10:51:29.605Z,11.30
2022-12-08T10:53:57.952Z,7.40
2022-12-08T10:56:28.668Z,8.30
2022-12-08T10:59:18.396Z,9.03
2022-12-08T11:01:48.647Z,8.33
2022-12-08T11:04:20.383Z,6.43
2022-12-08T11:06:50.156Z,8.27
2022-12-08T11:09:38.059Z,6.17
2022-12-08T11:12:13.965Z,7.73
2022-12-08T11:14:50.260Z,6.17
2022-12-08T11:17:25.503Z,6.80
2022-12-08T11:20:00.981Z,5.83
2022-12-08T11:22:33.790Z,6.60
2022-12-08T11:25:10.332Z,4.77
2022-12-08T11:27:40.357Z,6.63
2022-12-08T11:30:15.817Z,7.33
2022-12-08T11:32:46.194Z,5.47
2022-12-08T11:35:23.862Z,5.93
2022-12-08T11:37:51.914Z,6.13
2022-12-08T11:40:25.810Z,6.47
2022-12-08T11:43:03.365Z,5.60
2022-12-08T11:45:36.254Z,4.73
2022-12-08T11:48:12.618Z,5.80
2022-12-08T11:50:46.919Z,5.83
2022-12-08T11:53:26.066Z,5.87
2022-12-08T11:55:58.583Z,4.97
2022-12-08T11:58:32.932Z,5.53
2022-12-08T12:01:01.993Z,7.83
2022-12-08T12:03:35.140Z,5.83
2022-12-08T12:06:58.846Z,6.03
2022-12-08T12:09:38.365Z,5.50
2022-12-08T12:12:16.545Z,4.90
2022-12-08T12:15:08.428Z,5.67
2022-12-08T12:17:45.006Z,6.53
2022-12-08T12:20:18.393Z,5.90
2022-12-08T12:22:52.339Z,6.70
2022-12-08T12:25:23.608Z,5.27
2022-12-08T12:27:57.188Z,5.90
2022-12-08T12:30:27.620Z,5.50
2022-12-08T12:32:59.397Z,6.33
2022-12-08T12:35:33.818Z,8.90
2022-12-08T12:38:27.303Z,6.90
2022-12-08T12:41:01.790Z,6.20
2022-12-08T12:43:33.090Z,6.43
2022-12-08T12:46:39.280Z,6.37
2022-12-08T12:49:45.868Z,4.47
2022-12-08T12:52:50.532Z,4.90
2022-12-08T12:55:43.136Z,7.00
2022-12-08T12:58:37.883Z,4.47
2022-12-08T13:01:43.348Z,5.40
2022-12-08T13:04:12.473Z,7.40
2022-12-08T13:06:43.895Z,4.97
2022-12-08T13:09:27.789Z,6.17
2022-12-08T13:11:59.422Z,6.23
2022-12-08T13:14:35.788Z,6.40
2022-12-08T13:17:09.563Z,5.00
2022-12-08T13:19:39.814Z,6.33
2022-12-08T13:22:41.005Z,6.17
2022-12-08T13:25:47.376Z,6.10
2022-12-08T13:28:23.308Z,5.77
2022-12-08T13:30:52.358Z,7.70
2022-12-08T13:33:26.055Z,6.23
2022-12-08T13:36:04.545Z,7.37
2022-12-08T13:38:36.696Z,7.17
2022-12-08T13:41:12.379Z,8.50
2022-12-08T13:44:20.049Z,6.70
2022-12-08T13:51:24.028Z,6.17
2022-12-08T13:56:51.312Z,8.87
2022-12-08T13:58:21.089Z,7.10
2022-12-08T14:01:02.795Z,6.40
2022-12-08T14:03:31.346Z,6.20
2022-12-08T14:06:15.668Z,5.73
2022-12-08T14:09:10.446Z,6.57
2022-12-08T14:11:39.054Z,7.30
2022-12-08T14:14:10.646Z,7.30
2022-12-08T14:16:41.292Z,8.97
2022-12-08T14:19:18.900Z,6.50
2022-12-08T14:21:54.696Z,6.50
2022-12-08T14:24:24.130Z,6.93
2022-12-08T14:26:55.288Z,8.20
2022-12-08T14:29:45.555Z,7.53
2022-12-08T14:32:27.870Z,7.83
2022-12-08T14:34:58.181Z,6.90
2022-12-08T14:37:28.271Z,7.17
2022-12-08T14:40:01.787Z,9.90
2022-12-08T14:42:31.184Z,8.37
2022-12-08T14:45:06.585Z,9.03
2022-12-08T14:47:36.139Z,8.30
2022-12-08T14:50:25.959Z,7.70
2022-12-08T14:52:55.364Z,9.70
2022-12-08T14:55:23.569Z,8.20
2022-12-08T14:57:51.671Z,10.37
2022-12-08T15:00:21.864Z,7.93
2022-12-08T15:02:52.948Z,10.27
2022-12-08T15:05:22.649Z,10.40
2022-12-08T15:07:52.784Z,12.73
2022-12-08T15:10:27.564Z,12.53
2022-12-08T15:13:02.102Z,12.00
2022-12-08T15:15:31.510Z,11.40
2022-12-08T15:18:03.922Z,10.40
2022-12-08T15:20:40.636Z,11.67
2022-12-08T15:23:20.139Z,11.53
2022-12-08T15:25:49.769Z,11.60
2022-12-08T15:28:21.269Z,10.57
2022-12-08T15:30:51.219Z,9.77
2022-12-08T15:33:19.319Z,11.27
2022-12-08T15:35:48.232Z,9.47
2022-12-08T15:38:24.697Z,9.37
2022-12-08T15:40:54.733Z,10.43
2022-12-08T15:43:23.508Z,13.40
2022-12-08T15:45:59.213Z,10.43
2022-12-08T15:48:29.807Z,11.47
2022-12-08T15:50:58.401Z,11.77
2022-12-08T15:53:26.483Z,12.60
2022-12-08T15:58:53.436Z,12.47
2022-12-08T16:01:22.197Z,13.20
2022-12-08T16:09:31.958Z,13.90
2022-12-08T16:12:22.084Z,13.00
2022-12-08T16:17:39.347Z,13.17
2022-12-08T16:20:09.934Z,13.23
2022-12-08T16:23:03.111Z,14.47
2022-12-08T16:25:28.801Z,13.90
2022-12-08T16:28:23.110Z,12.53
2022-12-08T16:30:50.762Z,12.83
2022-12-08T16:33:18.940Z,12.90
2022-12-08T16:35:46.935Z,14.55
2022-12-08T16:38:16.681Z,14.70
2022-12-08T16:41:03.759Z,13.90
2022-12-08T16:43:35.012Z,15.30
2022-12-08T16:46:03.690Z,17.17
2022-12-08T16:48:31.990Z,15.10
2022-12-08T16:51:00.054Z,17.57
2022-12-08T16:53:28.086Z,16.70
2022-12-08T16:55:56.088Z,16.80
2022-12-08T16:58:24.104Z,16.53
2022-12-08T17:00:53.834Z,16.53
2022-12-08T17:03:21.944Z,19.60
2022-12-08T17:05:49.919Z,19.90
2022-12-08T17:08:18.165Z,18.47
2022-12-08T17:11:06.240Z,19.17
2022-12-08T17:13:34.435Z,19.20
2022-12-08T17:16:04.335Z,17.43
2022-12-08T17:18:32.407Z,19.40
2022-12-08T17:21:00.387Z,17.97
2022-12-08T17:23:28.427Z,18.87
2022-12-08T17:26:00.445Z,18.67
2022-12-08T17:28:51.877Z,17.43
2022-12-08T17:31:18.623Z,21.60
2022-12-08T17:33:46.738Z,21.00
2022-12-08T17:36:17.045Z,23.90
2022-12-08T17:38:45.361Z,23.27
2022-12-08T17:41:13.376Z,21.63
2022-12-08T17:43:41.471Z,19.70
2022-12-08T17:46:09.531Z,20.20
2022-12-08T17:48:39.127Z,22.20
2022-12-08T17:51:10.271Z,21.87
2022-12-08T17:53:39.958Z,18.80
2022-12-08T17:56:15.270Z,17.57
2022-12-08T17:58:43.258Z,18.30
2022-12-08T18:01:13.517Z,17.53
2022-12-08T18:03:42.950Z,17.37
2022-12-08T18:06:13.347Z,20.07
2022-12-08T18:08:41.691Z,17.50
2022-12-08T18:11:14.199Z,19.87
2022-12-08T18:13:42.442Z,18.83
2022-12-08T18:16:10.470Z,18.67
2022-12-08T18:18:38.640Z,18.30
2022-12-08T18:21:08.127Z,19.70
2022-12-08T18:23:38.124Z,19.50
2022-12-08T18:26:06.593Z,23.70
2022-12-08T18:28:34.973Z,19.20
2022-12-08T18:31:03.094Z,18.63
2022-12-08T18:33:31.273Z,18.87
2022-12-08T18:35:59.290Z,21.53
2022-12-08T18:38:28.668Z,22.60
2022-12-08T18:40:56.669Z,23.33
2022-12-08T18:43:24.669Z,22.57
2022-12-08T18:46:02.323Z,23.83
2022-12-08T18:48:30.484Z,25.73
2022-12-08T18:50:58.753Z,26.10
2022-12-08T18:53:28.226Z,23.83
2022-12-08T18:55:56.373Z,24.63
2022-12-08T18:58:24.501Z,27.33
2022-12-08T19:00:52.507Z,26.70
2022-12-08T19:03:20.604Z,27.53
2022-12-08T19:05:48.625Z,26.13
2022-12-08T19:08:16.695Z,24.53
2022-12-08T19:10:46.180Z,25.20
2022-12-08T19:13:14.180Z,30.10
2022-12-08T19:15:42.191Z,26.80
2022-12-08T19:18:10.250Z,27.17
2022-12-08T19:20:38.289Z,26.50
2022-12-08T19:23:06.309Z,27.93
2022-12-08T19:25:34.305Z,25.03
2022-12-08T19:28:03.700Z,25.63
2022-12-08T19:30:32.259Z,26.83
2022-12-08T19:33:00.398Z,27.13
2022-12-08T19:35:31.418Z,32.00
2022-12-08T19:37:59.403Z,28.23
2022-12-08T19:40:44.947Z,27.00
2022-12-08T19:43:35.764Z,27.40
2022-12-08T19:46:03.902Z,29.03
2022-12-08T19:48:32.026Z,28.43
2022-12-08T19:51:00.182Z,30.77
2022-12-08T19:53:28.768Z,28.70
2022-12-08T19:55:56.838Z,30.37
2022-12-08T19:58:26.250Z,28.70
2022-12-08T20:00:54.819Z,26.80
2022-12-08T20:03:23.654Z,27.50
2022-12-08T20:05:53.550Z,28.27
2022-12-08T20:08:21.689Z,31.87
2022-12-08T20:10:49.722Z,29.93
2022-12-08T20:13:35.075Z,29.63
2022-12-08T20:16:04.775Z,29.70
2022-12-08T20:18:35.943Z,29.03
2022-12-08T20:21:04.056Z,28.50
2022-12-08T20:23:32.423Z,27.90
2022-12-08T20:26:00.573Z,27.10
2022-12-08T20:28:28.578Z,26.63
2022-12-08T20:30:56.692Z,28.63
2022-12-08T20:33:26.110Z,30.67
2022-12-08T20:36:00.147Z,33.00
2022-12-08T20:38:28.674Z,34.30
2022-12-08T20:40:57.848Z,38.10
2022-12-08T20:43:26.892Z,38.97
2022-12-08T20:45:54.916Z,35.67
2022-12-08T20:48:22.994Z,32.37
2022-12-08T20:50:53.136Z,32.97
2022-12-08T20:53:21.290Z,35.03
2022-12-08T20:55:49.408Z,34.90
2022-12-08T20:58:17.545Z,30.10
2022-12-08T21:00:45.621Z,30.00
2022-12-08T21:03:15.366Z,25.30
2022-12-08T21:05:49.298Z,28.33
2022-12-08T21:08:20.402Z,25.70
2022-12-08T21:10:54.750Z,29.77
2022-12-08T21:13:23.011Z,41.73
2022-12-08T21:15:51.184Z,42.57
2022-12-08T21:18:19.607Z,39.53
2022-12-08T21:20:48.773Z,37.47
2022-12-08T21:23:19.295Z,35.33
2022-12-08T21:25:48.290Z,39.57
2022-12-08T21:28:16.622Z,35.40
2022-12-08T21:30:45.022Z,39.60
2022-12-08T21:33:13.325Z,36.73
2022-12-08T21:35:41.543Z,34.97
2022-12-08T21:38:09.670Z,35.23
2022-12-08T21:40:39.313Z,38.47
2022-12-08T21:43:07.674Z,33.77
2022-12-08T21:45:36.129Z,33.17
2022-12-08T21:48:10.772Z,34.03
2022-12-08T21:50:39.772Z,35.43
2022-12-08T21:53:08.036Z,31.50
2022-12-08T21:55:36.173Z,33.17
2022-12-08T21:58:05.609Z,34.10
2022-12-08T22:00:33.857Z,27.10
2022-12-08T22:03:02.274Z,33.47
2022-12-08T22:05:30.534Z,36.80
2022-12-08T22:07:58.847Z,36.57
2022-12-08T22:10:27.053Z,34.47
2022-12-08T22:12:55.271Z,33.20
2022-12-08T22:15:25.534Z,35.17
2022-12-08T22:17:53.774Z,33.20
2022-12-08T22:20:22.266Z,33.40
2022-12-08T22:22:50.391Z,38.27
2022-12-08T22:25:18.522Z,33.60
2022-12-08T22:27:46.673Z,34.23
2022-12-08T22:30:14.971Z,33.20
2022-12-08T22:32:44.483Z,30.23
2022-12-08T22:35:12.724Z,33.67
2022-12-08T22:37:40.866Z,29.67
2022-12-08T22:40:11.116Z,30.87
2022-12-08T22:42:40.102Z,31.63
2022-12-08T22:45:09.462Z,31.07
2022-12-08T22:47:37.566Z,33.07
2022-12-08T22:50:08.809Z,31.67
2022-12-08T22:52:37.364Z,32.13
2022-12-08T22:55:06.274Z,30.73
2022-12-08T22:57:34.348Z,33.07
2022-12-08T23:00:03.534Z,28.70
2022-12-08T23:02:31.717Z,29.60
2022-12-08T23:04:59.863Z,30.37
2022-12-08T23:07:29.581Z,29.40
2022-12-08T23:09:57.690Z,30.20
2022-12-08T23:12:25.876Z,27.40
2022-12-08T23:14:54.050Z,29.53
2022-12-08T23:17:22.277Z,30.57
2022-12-08T23:19:50.542Z,30.73
2022-12-08T23:22:18.732Z,26.90
2022-12-08T23:24:48.135Z,30.87
2022-12-08T23:27:16.264Z,26.97
2022-12-08T23:29:44.317Z,26.40
2022-12-08T23:32:12.437Z,28.50
2022-12-08T23:34:40.527Z,26.77
2022-12-08T23:37:08.554Z,29.90
2022-12-08T23:39:36.596Z,29.87
2022-12-08T23:42:06.356Z,32.27
2022-12-08T23:44:34.510Z,28.73
2022-12-08T23:47:02.642Z,32.27
2022-12-08T23:49:30.757Z,27.70
2022-12-08T23:51:58.952Z,26.90
2022-12-08T23:54:26.964Z,27.87
2022-12-08T23:56:55.163Z,27.90
2022-12-08T23:59:24.512Z,29.50
